sensor_id;sensor_type;location;lat;lon;timestamp;P1;durP1;ratioP1;P2;durP2;ratioP2
26478;SDS011;14163;-26.142;27.992;2023-08-06T00:03:19;38.00;;;31.07;;
26478;SDS011;14163;-26.142;27.992;2023-08-06T00:05:48;37.80;;;30.73;;
26478;SDS011;14163;-26.142;27.992;2023-08-06T00:08:17;33.33;;;28.63;;
26478;SDS011;14163;-26.142;27.992;2023-08-06T00:10:47;33.33;;;29.73;;
26478;SDS011;14163;-26.142;27.992;2023-08-06T00:13:16;34.20;;;29.70;;
26478;SDS011;14163;-26.142;27.992;2023-08-06T00:15:45;34.23;;;29.53;;
26478;SDS011;14163;-26.142;27.992;2023-08-06T00:18:15;38.00;;;30.63;;
26478;SDS011;14163;-26.142;27.992;2023-08-06T00:20:46;39.37;;;30.67;;
26478;SDS011;14163;-26.142;27.992;2023-08-06T00:23:15;33.00;;;27.70;;
26478;SDS011;14163;-26.142;27.992;2023-08-06T00:25:44;32.60;;;28.80;;
26478;SDS011;14163;-26.142;27.992;2023-08-06T00:28:13;30.93;;;27.67;;
26478;SDS011;14163;-26.142;27.992;2023-08-06T00:30:42;36.27;;;28.50;;
26478;SDS011;14163;-26.142;27.992;2023-08-06T00:33:12;34.60;;;28.03;;
26478;SDS011;14163;-26.142;27.992;2023-08-06T00:35:41;32.97;;;27.53;;
26478;SDS011;14163;-26.142;27.992;2023-08-06T00:38:12;32.17;;;28.77;;
26478;SDS011;14163;-26.142;27.992;2023-08-06T00:40:41;34.27;;;28.67;;
26478;SDS011;14163;-26.142;27.992;2023-08-06T00:43:10;31.57;;;27.33;;
26478;SDS011;14163;-26.142;27.992;2023-08-06T00:45:39;32.03;;;27.00;;
26478;SDS011;14163;-26.142;27.992;2023-08-06T00:48:09;30.67;;;26.90;;
26478;SDS011;14163;-26.142;27.992;2023-08-06T00:50:38;30.67;;;26.60;;
26478;SDS011;14163;-26.142;27.992;2023-08-06T00:53:07;31.43;;;27.67;;
26478;SDS011;14163;-26.142;27.992;2023-08-06T00:55:39;35.80;;;28.10;;
26478;SDS011;14163;-26.142;27.992;2023-08-06T00:58:09;32.23;;;27.27;;
26478;SDS011;14163;-26.142;27.992;2023-08-06T01:00:38;30.90;;;26.73;;
26478;SDS011;14163;-26.142;27.992;2023-08-06T01:03:08;29.50;;;25.30;;
26478;SDS011;14163;-26.142;27.992;2023-08-06T01:05:37;32.10;;;26.80;;
26478;SDS011;14163;-26.142;27.992;2023-08-06T01:08:09;27.80;;;25.00;;
26478;SDS011;14163;-26.142;27.992;2023-08-06T01:10:51;26.47;;;23.67;;
26478;SDS011;14163;-26.142;27.992;2023-08-06T01:13:32;29.73;;;24.23;;
26478;SDS011;14163;-26.142;27.992;2023-08-06T01:16:07;26.63;;;23.27;;
26478;SDS011;14163;-26.142;27.992;2023-08-06T01:18:37;26.67;;;22.87;;
26478;SDS011;14163;-26.142;27.992;2023-08-06T01:21:09;25.00;;;22.40;;
26478;SDS011;14163;-26.142;27.992;2023-08-06T01:23:38;22.20;;;19.83;;
26478;SDS011;14163;-26.142;27.992;2023-08-06T01:26:10;23.40;;;20.53;;
26478;SDS011;14163;-26.142;27.992;2023-08-06T01:28:44;24.33;;;19.97;;
26478;SDS011;14163;-26.142;27.992;2023-08-06T01:31:21;25.10;;;20.53;;
26478;SDS011;14163;-26.142;27.992;2023-08-06T01:33:54;21.93;;;19.13;;
26478;SDS011;14163;-26.142;27.992;2023-08-06T01:36:27;19.50;;;17.37;;
26478;SDS011;14163;-26.142;27.992;2023-08-06T01:38:58;20.27;;;16.23;;
26478;SDS011;14163;-26.142;27.992;2023-08-06T01:41:27;20.10;;;15.30;;
26478;SDS011;14163;-26.142;27.992;2023-08-06T01:43:57;18.77;;;15.50;;
26478;SDS011;14163;-26.142;27.992;2023-08-06T01:46:26;18.67;;;16.67;;
26478;SDS011;14163;-26.142;27.992;2023-08-06T01:48:55;16.93;;;14.50;;
26478;SDS011;14163;-26.142;27.992;2023-08-06T01:51:24;16.90;;;14.47;;
26478;SDS011;14163;-26.142;27.992;2023-08-06T01:53:55;15.77;;;14.23;;
26478;SDS011;14163;-26.142;27.992;2023-08-06T01:56:24;15.67;;;13.87;;
26478;SDS011;14163;-26.142;27.992;2023-08-06T01:58:54;14.30;;;12.80;;
26478;SDS011;14163;-26.142;27.992;2023-08-06T02:01:23;14.23;;;12.73;;
26478;SDS011;14163;-26.142;27.992;2023-08-06T02:03:52;13.90;;;12.60;;
26478;SDS011;14163;-26.142;27.992;2023-08-06T02:06:21;15.17;;;13.53;;
26478;SDS011;14163;-26.142;27.992;2023-08-06T02:08:52;14.70;;;13.20;;
26478;SDS011;14163;-26.142;27.992;2023-08-06T02:11:21;15.60;;;12.33;;
26478;SDS011;14163;-26.142;27.992;2023-08-06T02:13:50;13.33;;;12.03;;
26478;SDS011;14163;-26.142;27.992;2023-08-06T02:16:20;13.77;;;12.27;;
26478;SDS011;14163;-26.142;27.992;2023-08-06T02:18:49;14.33;;;11.30;;
26478;SDS011;14163;-26.142;27.992;2023-08-06T02:21:18;14.43;;;12.53;;
26478;SDS011;14163;-26.142;27.992;2023-08-06T02:23:47;14.20;;;11.90;;
26478;SDS011;14163;-26.142;27.992;2023-08-06T02:26:18;15.43;;;12.90;;
26478;SDS011;14163;-26.142;27.992;2023-08-06T02:28:47;15.33;;;12.40;;
26478;SDS011;14163;-26.142;27.992;2023-08-06T02:31:17;14.17;;;12.40;;
26478;SDS011;14163;-26.142;27.992;2023-08-06T02:33:46;13.37;;;11.97;;
26478;SDS011;14163;-26.142;27.992;2023-08-06T02:36:15;16.10;;;12.20;;
26478;SDS011;14163;-26.142;27.992;2023-08-06T02:38:45;15.37;;;12.47;;
26478;SDS011;14163;-26.142;27.992;2023-08-06T02:41:14;14.90;;;11.93;;
26478;SDS011;14163;-26.142;27.992;2023-08-06T02:43:45;12.77;;;11.50;;
26478;SDS011;14163;-26.142;27.992;2023-08-06T02:46:15;13.10;;;11.70;;
26478;SDS011;14163;-26.142;27.992;2023-08-06T02:48:46;14.70;;;11.70;;
26478;SDS011;14163;-26.142;27.992;2023-08-06T02:51:15;13.77;;;11.37;;
26478;SDS011;14163;-26.142;27.992;2023-08-06T02:53:45;11.80;;;10.70;;
26478;SDS011;14163;-26.142;27.992;2023-08-06T02:56:16;11.03;;;9.93;;
26478;SDS011;14163;-26.142;27.992;2023-08-06T02:58:47;11.20;;;10.20;;
26478;SDS011;14163;-26.142;27.992;2023-08-06T03:01:16;11.13;;;10.00;;
26478;SDS011;14163;-26.142;27.992;2023-08-06T03:03:45;12.00;;;10.47;;
26478;SDS011;14163;-26.142;27.992;2023-08-06T03:06:14;12.33;;;11.00;;
26478;SDS011;14163;-26.142;27.992;2023-08-06T03:08:44;11.20;;;10.10;;
26478;SDS011;14163;-26.142;27.992;2023-08-06T03:11:13;10.90;;;9.90;;
26478;SDS011;14163;-26.142;27.992;2023-08-06T03:13:42;12.80;;;9.87;;
26478;SDS011;14163;-26.142;27.992;2023-08-06T03:16:13;10.83;;;9.33;;
26478;SDS011;14163;-26.142;27.992;2023-08-06T03:18:42;11.40;;;9.50;;
26478;SDS011;14163;-26.142;27.992;2023-08-06T03:21:12;10.77;;;8.77;;
26478;SDS011;14163;-26.142;27.992;2023-08-06T03:23:41;10.83;;;9.63;;
26478;SDS011;14163;-26.142;27.992;2023-08-06T03:26:10;12.37;;;9.47;;
26478;SDS011;14163;-26.142;27.992;2023-08-06T03:28:39;10.43;;;9.33;;
26478;SDS011;14163;-26.142;27.992;2023-08-06T03:31:09;14.03;;;10.03;;
26478;SDS011;14163;-26.142;27.992;2023-08-06T03:33:40;12.63;;;8.93;;
26478;SDS011;14163;-26.142;27.992;2023-08-06T03:36:09;9.80;;;8.30;;
26478;SDS011;14163;-26.142;27.992;2023-08-06T03:38:38;7.93;;;7.13;;
26478;SDS011;14163;-26.142;27.992;2023-08-06T03:41:08;8.23;;;7.40;;
26478;SDS011;14163;-26.142;27.992;2023-08-06T03:43:37;7.90;;;7.30;;
26478;SDS011;14163;-26.142;27.992;2023-08-06T03:46:06;9.37;;;7.13;;
26478;SDS011;14163;-26.142;27.992;2023-08-06T03:48:35;8.43;;;7.53;;
26478;SDS011;14163;-26.142;27.992;2023-08-06T03:51:06;7.63;;;7.00;;
26478;SDS011;14163;-26.142;27.992;2023-08-06T03:53:35;7.43;;;6.73;;
26478;SDS011;14163;-26.142;27.992;2023-08-06T03:56:05;6.97;;;6.30;;
26478;SDS011;14163;-26.142;27.992;2023-08-06T03:58:34;8.87;;;6.90;;
26478;SDS011;14163;-26.142;27.992;2023-08-06T04:01:03;7.03;;;6.33;;
26478;SDS011;14163;-26.142;27.992;2023-08-06T04:03:32;6.90;;;6.20;;
26478;SDS011;14163;-26.142;27.992;2023-08-06T04:06:02;6.83;;;6.13;;
26478;SDS011;14163;-26.142;27.992;2023-08-06T04:08:33;8.10;;;6.37;;
26478;SDS011;14163;-26.142;27.992;2023-08-06T04:11:02;6.03;;;5.57;;
26478;SDS011;14163;-26.142;27.992;2023-08-06T04:13:31;6.37;;;5.63;;
26478;SDS011;14163;-26.142;27.992;2023-08-06T04:16:01;6.60;;;5.97;;
26478;SDS011;14163;-26.142;27.992;2023-08-06T04:18:31;6.90;;;6.30;;
26478;SDS011;14163;-26.142;27.992;2023-08-06T04:21:01;6.53;;;5.90;;
26478;SDS011;14163;-26.142;27.992;2023-08-06T04:23:30;6.20;;;5.67;;
26478;SDS011;14163;-26.142;27.992;2023-08-06T04:26:01;5.77;;;5.37;;
26478;SDS011;14163;-26.142;27.992;2023-08-06T04:28:31;5.63;;;5.13;;
26478;SDS011;14163;-26.142;27.992;2023-08-06T04:31:00;5.97;;;5.23;;
26478;SDS011;14163;-26.142;27.992;2023-08-06T04:33:29;4.93;;;4.63;;
26478;SDS011;14163;-26.142;27.992;2023-08-06T04:35:59;4.90;;;4.60;;
26478;SDS011;14163;-26.142;27.992;2023-08-06T04:38:28;5.50;;;5.00;;
26478;SDS011;14163;-26.142;27.992;2023-08-06T04:40:59;4.73;;;4.43;;
26478;SDS011;14163;-26.142;27.992;2023-08-06T04:43:29;9.07;;;5.57;;
26478;SDS011;14163;-26.142;27.992;2023-08-06T04:45:59;5.93;;;5.40;;
26478;SDS011;14163;-26.142;27.992;2023-08-06T04:48:28;7.00;;;5.40;;
26478;SDS011;14163;-26.142;27.992;2023-08-06T04:50:57;5.47;;;4.97;;
26478;SDS011;14163;-26.142;27.992;2023-08-06T04:53:26;5.07;;;4.67;;
26478;SDS011;14163;-26.142;27.992;2023-08-06T04:55:56;6.20;;;4.67;;
26478;SDS011;14163;-26.142;27.992;2023-08-06T04:58:27;4.80;;;4.40;;
26478;SDS011;14163;-26.142;27.992;2023-08-06T05:00:56;4.97;;;4.57;;
26478;SDS011;14163;-26.142;27.992;2023-08-06T05:03:25;6.40;;;4.57;;
26478;SDS011;14163;-26.142;27.992;2023-08-06T05:05:55;5.17;;;4.63;;
26478;SDS011;14163;-26.142;27.992;2023-08-06T05:08:24;5.73;;;5.23;;
26478;SDS011;14163;-26.142;27.992;2023-08-06T05:10:53;6.60;;;5.17;;
26478;SDS011;14163;-26.142;27.992;2023-08-06T05:13:22;15.80;;;7.27;;
26478;SDS011;14163;-26.142;27.992;2023-08-06T05:15:55;11.00;;;7.20;;
26478;SDS011;14163;-26.142;27.992;2023-08-06T05:18:24;9.70;;;6.83;;
26478;SDS011;14163;-26.142;27.992;2023-08-06T05:20:54;10.00;;;7.33;;
26478;SDS011;14163;-26.142;27.992;2023-08-06T05:23:23;8.17;;;6.40;;
26478;SDS011;14163;-26.142;27.992;2023-08-06T05:25:52;8.00;;;6.87;;
26478;SDS011;14163;-26.142;27.992;2023-08-06T05:28:21;13.40;;;6.10;;
26478;SDS011;14163;-26.142;27.992;2023-08-06T05:30:50;7.53;;;6.33;;
26478;SDS011;14163;-26.142;27.992;2023-08-06T05:33:21;6.67;;;6.07;;
26478;SDS011;14163;-26.142;27.992;2023-08-06T05:35:51;7.13;;;6.50;;
26478;SDS011;14163;-26.142;27.992;2023-08-06T05:38:20;7.73;;;6.97;;
26478;SDS011;14163;-26.142;27.992;2023-08-06T05:40:49;8.70;;;7.30;;
26478;SDS011;14163;-26.142;27.992;2023-08-06T05:43:18;12.27;;;8.67;;
26478;SDS011;14163;-26.142;27.992;2023-08-06T05:45:49;10.87;;;7.90;;
26478;SDS011;14163;-26.142;27.992;2023-08-06T05:48:23;10.80;;;7.80;;
26478;SDS011;14163;-26.142;27.992;2023-08-06T05:50:53;9.23;;;7.60;;
26478;SDS011;14163;-26.142;27.992;2023-08-06T05:53:22;9.27;;;7.33;;
26478;SDS011;14163;-26.142;27.992;2023-08-06T05:55:52;10.90;;;7.17;;
26478;SDS011;14163;-26.142;27.992;2023-08-06T05:58:21;8.17;;;6.33;;
26478;SDS011;14163;-26.142;27.992;2023-08-06T06:00:52;8.07;;;5.83;;
26478;SDS011;14163;-26.142;27.992;2023-08-06T08:04:02;5.60;;;5.10;;
26478;SDS011;14163;-26.142;27.992;2023-08-06T08:06:32;6.10;;;5.60;;
26478;SDS011;14163;-26.142;27.992;2023-08-06T08:09:02;4.60;;;4.30;;
26478;SDS011;14163;-26.142;27.992;2023-08-06T08:11:31;5.70;;;5.30;;
26478;SDS011;14163;-26.142;27.992;2023-08-06T08:14:00;8.77;;;5.10;;
26478;SDS011;14163;-26.142;27.992;2023-08-06T08:16:29;10.63;;;8.50;;
26478;SDS011;14163;-26.142;27.992;2023-08-06T08:18:59;7.77;;;6.90;;
26478;SDS011;14163;-26.142;27.992;2023-08-06T08:21:30;7.13;;;6.47;;
26478;SDS011;14163;-26.142;27.992;2023-08-06T08:23:59;9.43;;;8.43;;
26478;SDS011;14163;-26.142;27.992;2023-08-06T08:26:29;9.83;;;8.83;;
26478;SDS011;14163;-26.142;27.992;2023-08-06T08:28:58;9.20;;;7.57;;
26478;SDS011;14163;-26.142;27.992;2023-08-06T08:31:27;10.67;;;8.73;;
26478;SDS011;14163;-26.142;27.992;2023-08-06T08:33:56;8.43;;;7.10;;
26478;SDS011;14163;-26.142;27.992;2023-08-06T08:36:28;8.23;;;7.40;;
26478;SDS011;14163;-26.142;27.992;2023-08-06T08:38:57;10.53;;;8.20;;
26478;SDS011;14163;-26.142;27.992;2023-08-06T08:41:28;9.33;;;8.33;;
26478;SDS011;14163;-26.142;27.992;2023-08-06T08:43:58;12.37;;;9.70;;
26478;SDS011;14163;-26.142;27.992;2023-08-06T08:46:28;10.70;;;7.80;;
26478;SDS011;14163;-26.142;27.992;2023-08-06T08:48:59;9.50;;;8.70;;
26478;SDS011;14163;-26.142;27.992;2023-08-06T08:51:31;8.27;;;7.20;;
26478;SDS011;14163;-26.142;27.992;2023-08-06T08:54:03;8.93;;;8.07;;
26478;SDS011;14163;-26.142;27.992;2023-08-06T08:56:35;10.20;;;8.30;;
26478;SDS011;14163;-26.142;27.992;2023-08-06T08:59:04;10.30;;;7.80;;
26478;SDS011;14163;-26.142;27.992;2023-08-06T09:01:33;10.27;;;7.80;;
26478;SDS011;14163;-26.142;27.992;2023-08-06T09:04:04;9.90;;;8.90;;
26478;SDS011;14163;-26.142;27.992;2023-08-06T09:06:36;10.37;;;9.40;;
26478;SDS011;14163;-26.142;27.992;2023-08-06T09:09:06;11.50;;;9.00;;
26478;SDS011;14163;-26.142;27.992;2023-08-06T09:11:43;11.60;;;8.53;;
26478;SDS011;14163;-26.142;27.992;2023-08-06T09:14:13;10.40;;;9.37;;
26478;SDS011;14163;-26.142;27.992;2023-08-06T09:16:43;10.63;;;9.20;;
26478;SDS011;14163;-26.142;27.992;2023-08-06T09:19:12;12.23;;;9.63;;
26478;SDS011;14163;-26.142;27.992;2023-08-06T09:21:45;9.83;;;8.83;;
26478;SDS011;14163;-26.142;27.992;2023-08-06T09:24:15;9.10;;;8.30;;
26478;SDS011;14163;-26.142;27.992;2023-08-06T09:26:45;11.13;;;10.20;;
26478;SDS011;14163;-26.142;27.992;2023-08-06T09:29:14;12.17;;;10.00;;
26478;SDS011;14163;-26.142;27.992;2023-08-06T09:31:43;10.37;;;9.37;;
26478;SDS011;14163;-26.142;27.992;2023-08-06T09:34:15;10.50;;;9.40;;
26478;SDS011;14163;-26.142;27.992;2023-08-06T09:36:47;10.73;;;9.67;;
26478;SDS011;14163;-26.142;27.992;2023-08-06T09:39:17;13.27;;;10.40;;
26478;SDS011;14163;-26.142;27.992;2023-08-06T09:41:47;12.60;;;11.30;;
26478;SDS011;14163;-26.142;27.992;2023-08-06T09:44:24;19.23;;;15.83;;
26478;SDS011;14163;-26.142;27.992;2023-08-06T09:46:55;103.27;;;73.13;;
26478;SDS011;14163;-26.142;27.992;2023-08-06T09:49:25;109.40;;;75.20;;
26478;SDS011;14163;-26.142;27.992;2023-08-06T09:51:57;37.17;;;23.23;;
26478;SDS011;14163;-26.142;27.992;2023-08-06T09:54:27;35.80;;;26.27;;
26478;SDS011;14163;-26.142;27.992;2023-08-06T09:56:56;24.40;;;17.90;;
26478;SDS011;14163;-26.142;27.992;2023-08-06T09:59:27;11.40;;;9.63;;
26478;SDS011;14163;-26.142;27.992;2023-08-06T10:01:57;12.03;;;10.83;;
26478;SDS011;14163;-26.142;27.992;2023-08-06T10:04:27;10.67;;;9.60;;
26478;SDS011;14163;-26.142;27.992;2023-08-06T10:07:00;10.67;;;9.47;;
26478;SDS011;14163;-26.142;27.992;2023-08-06T10:09:29;10.53;;;9.40;;
26478;SDS011;14163;-26.142;27.992;2023-08-06T10:11:59;10.90;;;9.90;;
26478;SDS011;14163;-26.142;27.992;2023-08-06T10:14:29;15.07;;;10.10;;
26478;SDS011;14163;-26.142;27.992;2023-08-06T10:17:01;10.20;;;9.40;;
26478;SDS011;14163;-26.142;27.992;2023-08-06T10:19:31;10.93;;;9.83;;
26478;SDS011;14163;-26.142;27.992;2023-08-06T10:22:13;12.63;;;10.27;;
26478;SDS011;14163;-26.142;27.992;2023-08-06T10:24:49;9.70;;;8.90;;
26478;SDS011;14163;-26.142;27.992;2023-08-06T10:27:22;9.93;;;9.10;;
26478;SDS011;14163;-26.142;27.992;2023-08-06T10:29:56;16.37;;;10.70;;
26478;SDS011;14163;-26.142;27.992;2023-08-06T10:32:49;11.50;;;10.03;;
26478;SDS011;14163;-26.142;27.992;2023-08-06T10:35:34;12.70;;;11.50;;
26478;SDS011;14163;-26.142;27.992;2023-08-06T10:38:05;11.57;;;10.50;;
26478;SDS011;14163;-26.142;27.992;2023-08-06T10:40:37;11.60;;;10.30;;
26478;SDS011;14163;-26.142;27.992;2023-08-06T10:43:08;11.50;;;10.43;;
26478;SDS011;14163;-26.142;27.992;2023-08-06T10:45:54;12.67;;;10.53;;
26478;SDS011;14163;-26.142;27.992;2023-08-06T10:48:30;11.10;;;10.10;;
26478;SDS011;14163;-26.142;27.992;2023-08-06T10:51:02;15.00;;;12.60;;
26478;SDS011;14163;-26.142;27.992;2023-08-06T10:53:33;13.27;;;12.00;;
26478;SDS011;14163;-26.142;27.992;2023-08-06T10:56:11;12.93;;;11.53;;
26478;SDS011;14163;-26.142;27.992;2023-08-06T10:58:41;12.07;;;10.87;;
26478;SDS011;14163;-26.142;27.992;2023-08-06T11:01:12;13.20;;;11.80;;
26478;SDS011;14163;-26.142;27.992;2023-08-06T11:03:41;11.80;;;10.67;;
26478;SDS011;14163;-26.142;27.992;2023-08-06T11:06:16;12.27;;;11.20;;
26478;SDS011;14163;-26.142;27.992;2023-08-06T11:08:51;12.10;;;10.80;;
26478;SDS011;14163;-26.142;27.992;2023-08-06T11:11:22;12.77;;;11.57;;
26478;SDS011;14163;-26.142;27.992;2023-08-06T11:13:51;11.77;;;10.57;;
26478;SDS011;14163;-26.142;27.992;2023-08-06T11:16:21;13.37;;;12.13;;
26478;SDS011;14163;-26.142;27.992;2023-08-06T11:18:51;14.87;;;11.47;;
26478;SDS011;14163;-26.142;27.992;2023-08-06T11:21:22;26.17;;;18.87;;
26478;SDS011;14163;-26.142;27.992;2023-08-06T11:23:53;12.43;;;9.40;;
26478;SDS011;14163;-26.142;27.992;2023-08-06T11:26:23;12.73;;;10.23;;
26478;SDS011;14163;-26.142;27.992;2023-08-06T11:28:53;13.63;;;11.03;;
26478;SDS011;14163;-26.142;27.992;2023-08-06T11:31:23;11.83;;;10.57;;
26478;SDS011;14163;-26.142;27.992;2023-08-06T11:33:52;13.57;;;10.37;;
26478;SDS011;14163;-26.142;27.992;2023-08-06T11:36:28;12.30;;;11.20;;
26478;SDS011;14163;-26.142;27.992;2023-08-06T11:39:00;12.07;;;10.87;;
26478;SDS011;14163;-26.142;27.992;2023-08-06T11:41:31;11.37;;;10.27;;
26478;SDS011;14163;-26.142;27.992;2023-08-06T11:44:01;11.57;;;10.67;;
26478;SDS011;14163;-26.142;27.992;2023-08-06T11:49:21;11.43;;;10.27;;
26478;SDS011;14163;-26.142;27.992;2023-08-06T11:52:08;12.47;;;11.30;;
26478;SDS011;14163;-26.142;27.992;2023-08-06T11:54:59;13.43;;;11.70;;
26478;SDS011;14163;-26.142;27.992;2023-08-06T11:57:29;12.73;;;11.53;;
26478;SDS011;14163;-26.142;27.992;2023-08-06T12:00:04;13.53;;;11.73;;
26478;SDS011;14163;-26.142;27.992;2023-08-06T12:02:34;12.13;;;11.13;;
26478;SDS011;14163;-26.142;27.992;2023-08-06T12:05:04;12.63;;;10.37;;
26478;SDS011;14163;-26.142;27.992;2023-08-06T12:07:38;16.20;;;11.27;;
26478;SDS011;14163;-26.142;27.992;2023-08-06T12:10:10;11.50;;;10.40;;
26478;SDS011;14163;-26.142;27.992;2023-08-06T12:12:40;13.53;;;11.23;;
26478;SDS011;14163;-26.142;27.992;2023-08-06T12:15:09;13.77;;;12.03;;
26478;SDS011;14163;-26.142;27.992;2023-08-06T12:17:39;13.83;;;12.43;;
26478;SDS011;14163;-26.142;27.992;2023-08-06T12:20:08;12.93;;;11.63;;
26478;SDS011;14163;-26.142;27.992;2023-08-06T12:22:38;13.50;;;11.27;;
26478;SDS011;14163;-26.142;27.992;2023-08-06T12:25:09;16.73;;;12.00;;
26478;SDS011;14163;-26.142;27.992;2023-08-06T12:27:40;13.60;;;11.77;;
26478;SDS011;14163;-26.142;27.992;2023-08-06T12:30:12;13.40;;;12.10;;
26478;SDS011;14163;-26.142;27.992;2023-08-06T12:32:42;16.07;;;12.10;;
26478;SDS011;14163;-26.142;27.992;2023-08-06T12:35:11;13.90;;;12.40;;
26478;SDS011;14163;-26.142;27.992;2023-08-06T12:37:40;13.43;;;12.23;;
26478;SDS011;14163;-26.142;27.992;2023-08-06T12:40:11;13.73;;;12.50;;
26478;SDS011;14163;-26.142;27.992;2023-08-06T12:42:40;14.60;;;13.20;;
26478;SDS011;14163;-26.142;27.992;2023-08-06T12:45:10;17.10;;;12.67;;
26478;SDS011;14163;-26.142;27.992;2023-08-06T12:47:40;14.53;;;12.73;;
26478;SDS011;14163;-26.142;27.992;2023-08-06T12:50:09;14.50;;;13.20;;
26478;SDS011;14163;-26.142;27.992;2023-08-06T12:52:38;13.67;;;12.47;;
26478;SDS011;14163;-26.142;27.992;2023-08-06T12:55:07;14.97;;;12.10;;
26478;SDS011;14163;-26.142;27.992;2023-08-06T12:57:38;15.80;;;13.90;;
26478;SDS011;14163;-26.142;27.992;2023-08-06T13:00:08;15.87;;;13.97;;
26478;SDS011;14163;-26.142;27.992;2023-08-06T13:02:38;13.50;;;12.13;;
26478;SDS011;14163;-26.142;27.992;2023-08-06T13:05:07;13.77;;;12.37;;
26478;SDS011;14163;-26.142;27.992;2023-08-06T13:07:36;14.33;;;13.03;;
26478;SDS011;14163;-26.142;27.992;2023-08-06T13:10:06;17.20;;;13.70;;
26478;SDS011;14163;-26.142;27.992;2023-08-06T13:12:35;14.10;;;12.70;;
26478;SDS011;14163;-26.142;27.992;2023-08-06T13:15:07;14.13;;;12.93;;
26478;SDS011;14163;-26.142;27.992;2023-08-06T13:17:36;13.50;;;12.33;;
26478;SDS011;14163;-26.142;27.992;2023-08-06T13:20:06;16.80;;;14.30;;
26478;SDS011;14163;-26.142;27.992;2023-08-06T13:22:36;16.03;;;13.90;;
26478;SDS011;14163;-26.142;27.992;2023-08-06T13:25:05;15.13;;;13.57;;
26478;SDS011;14163;-26.142;27.992;2023-08-06T13:27:36;16.80;;;13.97;;
26478;SDS011;14163;-26.142;27.992;2023-08-06T13:30:09;14.30;;;13.00;;
26478;SDS011;14163;-26.142;27.992;2023-08-06T13:32:39;14.90;;;13.60;;
26478;SDS011;14163;-26.142;27.992;2023-08-06T13:35:08;15.57;;;14.07;;
26478;SDS011;14163;-26.142;27.992;2023-08-06T13:37:38;16.73;;;14.93;;
26478;SDS011;14163;-26.142;27.992;2023-08-06T13:40:07;15.50;;;14.00;;
26478;SDS011;14163;-26.142;27.992;2023-08-06T13:42:38;16.90;;;13.90;;
26478;SDS011;14163;-26.142;27.992;2023-08-06T13:45:08;15.30;;;13.90;;
26478;SDS011;14163;-26.142;27.992;2023-08-06T13:47:37;14.87;;;13.27;;
26478;SDS011;14163;-26.142;27.992;2023-08-06T13:50:07;15.57;;;14.27;;
26478;SDS011;14163;-26.142;27.992;2023-08-06T13:52:36;16.23;;;14.57;;
26478;SDS011;14163;-26.142;27.992;2023-08-06T13:55:06;16.77;;;15.07;;
26478;SDS011;14163;-26.142;27.992;2023-08-06T13:57:36;15.73;;;14.20;;
26478;SDS011;14163;-26.142;27.992;2023-08-06T14:00:07;20.33;;;14.80;;
26478;SDS011;14163;-26.142;27.992;2023-08-06T14:02:37;18.63;;;16.60;;
26478;SDS011;14163;-26.142;27.992;2023-08-06T14:05:06;17.53;;;15.13;;
26478;SDS011;14163;-26.142;27.992;2023-08-06T14:07:36;15.80;;;14.13;;
26478;SDS011;14163;-26.142;27.992;2023-08-06T14:10:05;15.37;;;13.67;;
26478;SDS011;14163;-26.142;27.992;2023-08-06T14:12:35;14.27;;;12.87;;
26478;SDS011;14163;-26.142;27.992;2023-08-06T14:15:06;16.23;;;14.60;;
26478;SDS011;14163;-26.142;27.992;2023-08-06T14:17:36;16.03;;;14.43;;
26478;SDS011;14163;-26.142;27.992;2023-08-06T14:20:06;15.83;;;14.13;;
26478;SDS011;14163;-26.142;27.992;2023-08-06T14:22:37;16.97;;;14.33;;
26478;SDS011;14163;-26.142;27.992;2023-08-06T14:25:07;14.87;;;13.47;;
26478;SDS011;14163;-26.142;27.992;2023-08-06T14:27:38;15.70;;;13.57;;
26478;SDS011;14163;-26.142;27.992;2023-08-06T14:30:07;15.67;;;13.00;;
26478;SDS011;14163;-26.142;27.992;2023-08-06T14:32:37;17.03;;;14.70;;
26478;SDS011;14163;-26.142;27.992;2023-08-06T14:35:07;14.60;;;13.40;;
26478;SDS011;14163;-26.142;27.992;2023-08-06T14:37:36;15.87;;;13.97;;
26478;SDS011;14163;-26.142;27.992;2023-08-06T14:40:07;14.10;;;12.70;;
26478;SDS011;14163;-26.142;27.992;2023-08-06T14:42:38;13.20;;;12.03;;
26478;SDS011;14163;-26.142;27.992;2023-08-06T14:45:08;13.37;;;11.97;;
26478;SDS011;14163;-26.142;27.992;2023-08-06T14:47:37;13.40;;;12.00;;
26478;SDS011;14163;-26.142;27.992;2023-08-06T14:50:07;12.50;;;11.40;;
26478;SDS011;14163;-26.142;27.992;2023-08-06T14:52:36;12.97;;;11.77;;
26478;SDS011;14163;-26.142;27.992;2023-08-06T14:55:06;15.77;;;12.10;;
26478;SDS011;14163;-26.142;27.992;2023-08-06T14:57:35;13.40;;;12.00;;
26478;SDS011;14163;-26.142;27.992;2023-08-06T15:00:07;13.73;;;12.30;;
26478;SDS011;14163;-26.142;27.992;2023-08-06T15:02:37;13.40;;;12.00;;
26478;SDS011;14163;-26.142;27.992;2023-08-06T15:05:06;16.50;;;12.87;;
26478;SDS011;14163;-26.142;27.992;2023-08-06T15:07:36;13.60;;;11.30;;
26478;SDS011;14163;-26.142;27.992;2023-08-06T15:10:05;13.30;;;10.73;;
26478;SDS011;14163;-26.142;27.992;2023-08-06T15:12:35;14.60;;;12.00;;
26478;SDS011;14163;-26.142;27.992;2023-08-06T15:15:07;11.63;;;10.63;;
26478;SDS011;14163;-26.142;27.992;2023-08-06T15:17:37;12.70;;;11.57;;
26478;SDS011;14163;-26.142;27.992;2023-08-06T15:20:06;13.97;;;10.90;;
26478;SDS011;14163;-26.142;27.992;2023-08-06T15:22:36;13.33;;;11.97;;
26478;SDS011;14163;-26.142;27.992;2023-08-06T15:25:05;12.87;;;11.30;;
26478;SDS011;14163;-26.142;27.992;2023-08-06T15:27:35;11.13;;;10.00;;
26478;SDS011;14163;-26.142;27.992;2023-08-06T15:30:06;12.80;;;11.70;;
26478;SDS011;14163;-26.142;27.992;2023-08-06T15:32:36;12.70;;;10.83;;
26478;SDS011;14163;-26.142;27.992;2023-08-06T15:35:09;12.40;;;11.20;;
26478;SDS011;14163;-26.142;27.992;2023-08-06T15:37:41;14.50;;;11.23;;
26478;SDS011;14163;-26.142;27.992;2023-08-06T15:40:11;12.80;;;11.60;;
26478;SDS011;14163;-26.142;27.992;2023-08-06T15:42:42;14.23;;;11.60;;
26478;SDS011;14163;-26.142;27.992;2023-08-06T15:45:11;14.33;;;12.60;;
26478;SDS011;14163;-26.142;27.992;2023-08-06T15:47:40;10.30;;;9.37;;
26478;SDS011;14163;-26.142;27.992;2023-08-06T15:50:09;13.40;;;11.60;;
26478;SDS011;14163;-26.142;27.992;2023-08-06T15:52:39;19.20;;;12.00;;
26478;SDS011;14163;-26.142;27.992;2023-08-06T15:55:08;15.83;;;11.23;;
26478;SDS011;14163;-26.142;27.992;2023-08-06T15:57:38;13.50;;;12.10;;
26478;SDS011;14163;-26.142;27.992;2023-08-06T16:00:10;12.73;;;11.40;;
26478;SDS011;14163;-26.142;27.992;2023-08-06T16:02:40;20.13;;;13.40;;
26478;SDS011;14163;-26.142;27.992;2023-08-06T16:05:09;19.50;;;16.77;;
26478;SDS011;14163;-26.142;27.992;2023-08-06T16:07:38;16.93;;;14.97;;
26478;SDS011;14163;-26.142;27.992;2023-08-06T16:10:08;18.20;;;16.30;;
26478;SDS011;14163;-26.142;27.992;2023-08-06T16:12:37;20.83;;;16.90;;
26478;SDS011;14163;-26.142;27.992;2023-08-06T16:15:07;18.70;;;16.77;;
26478;SDS011;14163;-26.142;27.992;2023-08-06T16:17:41;17.50;;;15.50;;
26478;SDS011;14163;-26.142;27.992;2023-08-06T16:20:10;21.53;;;17.10;;
26478;SDS011;14163;-26.142;27.992;2023-08-06T16:22:41;19.70;;;17.60;;
26478;SDS011;14163;-26.142;27.992;2023-08-06T16:25:11;27.73;;;19.10;;
26478;SDS011;14163;-26.142;27.992;2023-08-06T16:27:41;22.43;;;20.03;;